Time;durP1;ratioP1;P1;durP2;ratioP2;P2;SDS_P1;SDS_P2;PMS_P1;PMS_P2;Temp;Humidity;BMP_temperature;BMP_pressure;BME280_temperature;BME280_humidity;BME280_pressure;Samples;Min_cycle;Max_cycle;Signal;HPM_P1;HPM_P2
2022/05/04 00:01:02;;;;;;;8.20;6.90;;;12.80;99.90;;;;;;5021466;28;20478;-87
2022/05/04 00:03:29;;;;;;;8.30;6.80;;;12.80;99.90;;;;;;5019944;28;20450;-88
2022/05/04 00:05:57;;;;;;;9.03;7.13;;;12.90;99.90;;;;;;5019044;28;20504;-87
2022/05/04 00:08:24;;;;;;;10.20;7.40;;;12.80;99.90;;;;;;5019076;28;20456;-88
2022/05/04 00:10:51;;;;;;;8.47;6.83;;;12.80;99.90;;;;;;5018224;28;20496;-87
2022/05/04 00:13:18;;;;;;;8.53;6.33;;;12.70;99.90;;;;;;5018358;28;20910;-87
2022/05/04 00:15:45;;;;;;;8.70;7.60;;;12.70;99.90;;;;;;5017307;28;20425;-88
2022/05/04 00:18:11;;;;;;;9.50;7.17;;;12.60;99.90;;;;;;5016892;28;20493;-88
2022/05/04 00:20:38;;;;;;;9.33;7.30;;;12.70;99.90;;;;;;5017143;28;20471;-88
2022/05/04 00:23:07;;;;;;;11.63;6.63;;;12.60;99.90;;;;;;5017361;28;20537;-88
2022/05/04 00:25:36;;;;;;;12.00;7.47;;;12.50;99.90;;;;;;5017607;28;20482;-87
2022/05/04 00:28:04;;;;;;;8.77;6.90;;;12.40;99.90;;;;;;5017792;28;20533;-87
2022/05/04 00:30:32;;;;;;;10.10;7.40;;;12.40;99.90;;;;;;5028457;28;20554;-87
2022/05/04 00:32:59;;;;;;;9.63;7.37;;;12.40;99.90;;;;;;5038821;28;20435;-88
2022/05/04 00:35:26;;;;;;;12.57;8.33;;;12.40;99.90;;;;;;5037619;28;20465;-87
2022/05/04 00:37:53;;;;;;;10.67;7.73;;;12.40;99.90;;;;;;5033554;28;20439;-86
2022/05/04 00:40:21;;;;;;;11.30;7.73;;;12.40;99.90;;;;;;5020693;28;20472;-86
2022/05/04 00:42:48;;;;;;;8.97;7.50;;;12.50;99.90;;;;;;5017316;28;20509;-86
2022/05/04 00:45:15;;;;;;;9.60;7.50;;;12.50;99.90;;;;;;5016388;28;20532;-87
2022/05/04 00:47:42;;;;;;;10.50;6.97;;;12.60;99.90;;;;;;5017296;28;20450;-86
2022/05/04 00:50:10;;;;;;;10.10;7.20;;;12.50;99.90;;;;;;5016849;28;20582;-88
2022/05/04 00:52:44;;;;;;;9.00;7.87;;;12.50;99.90;;;;;;5017333;28;20632;-88
2022/05/04 00:55:12;;;;;;;10.47;7.57;;;12.50;99.90;;;;;;5016531;28;20454;-88
2022/05/04 01:00:38;;;;;;;8.80;7.60;;;12.30;99.90;;;;;;4955717;28;20420;-88
2022/05/04 01:03:05;;;;;;;8.77;7.17;;;12.10;99.90;;;;;;5001884;28;20489;-88
2022/05/04 01:05:32;;;;;;;9.80;7.57;;;12.00;99.90;;;;;;5017319;28;20450;-87
2022/05/04 01:07:59;;;;;;;10.97;7.87;;;12.10;99.90;;;;;;5020354;28;20457;-87
2022/05/04 01:10:26;;;;;;;9.30;6.97;;;12.10;99.90;;;;;;5017035;28;20494;-88
2022/05/04 01:12:55;;;;;;;11.50;8.10;;;12.00;99.90;;;;;;5016399;28;20462;-88
2022/05/04 01:15:23;;;;;;;11.17;7.40;;;12.10;99.90;;;;;;5016589;28;20530;-88
2022/05/04 01:17:50;;;;;;;9.37;6.80;;;12.10;99.90;;;;;;5017455;28;20450;-86
2022/05/04 01:20:18;;;;;;;8.83;7.17;;;12.20;99.90;;;;;;5023897;28;20472;-86
2022/05/04 01:22:46;;;;;;;11.33;7.90;;;12.10;99.90;;;;;;5034982;28;20461;-87
2022/05/04 01:25:14;;;;;;;8.70;7.63;;;12.00;99.90;;;;;;5037310;28;20438;-89
2022/05/04 01:27:41;;;;;;;9.20;7.23;;;11.80;99.90;;;;;;5036589;28;20604;-86
2022/05/04 01:30:09;;;;;;;12.13;7.63;;;11.70;99.90;;;;;;5035020;28;20483;-87
2022/05/04 01:32:36;;;;;;;9.30;7.57;;;11.70;99.90;;;;;;5033564;28;20442;-88
2022/05/04 01:35:03;;;;;;;12.53;7.13;;;11.70;99.90;;;;;;5035812;28;20489;-86
2022/05/04 01:37:30;;;;;;;9.30;7.67;;;11.70;99.90;;;;;;5031928;28;20449;-87
2022/05/04 01:39:59;;;;;;;10.30;8.30;;;11.70;99.90;;;;;;5032980;28;20509;-87
2022/05/04 01:42:25;;;;;;;10.33;7.70;;;11.80;99.90;;;;;;5028286;28;20484;-87
2022/05/04 01:44:53;;;;;;;8.77;7.43;;;11.80;99.90;;;;;;5023327;28;20567;-87
2022/05/04 01:47:20;;;;;;;12.10;8.47;;;11.80;99.90;;;;;;5016152;28;20455;-86
2022/05/04 01:49:47;;;;;;;10.60;8.47;;;11.80;99.90;;;;;;5014928;28;20506;-87
2022/05/04 01:52:14;;;;;;;9.50;7.73;;;11.80;99.90;;;;;;5024042;28;20434;-87
2022/05/04 01:54:40;;;;;;;11.60;7.77;;;11.80;99.90;;;;;;5032666;28;20505;-87
2022/05/04 01:57:09;;;;;;;9.10;7.13;;;11.90;99.90;;;;;;5035523;28;20441;-87
2022/05/04 01:59:36;;;;;;;10.07;8.13;;;12.00;99.90;;;;;;5036375;28;20474;-87
2022/05/04 02:02:07;;;;;;;8.67;7.00;;;12.00;99.90;;;;;;5017451;28;20458;-88
2022/05/04 02:04:34;;;;;;;8.67;7.33;;;11.90;99.90;;;;;;5030724;28;20381;-87
2022/05/04 02:07:01;;;;;;;9.80;8.80;;;12.00;99.90;;;;;;5027412;28;20568;-87
2022/05/04 02:09:29;;;;;;;8.27;7.43;;;12.00;99.90;;;;;;5021957;28;20514;-86
2022/05/04 02:11:56;;;;;;;9.57;8.13;;;11.90;99.90;;;;;;5021783;28;20553;-87
2022/05/04 02:14:25;;;;;;;11.10;8.40;;;11.80;99.90;;;;;;5014199;28;20454;-87
2022/05/04 02:16:52;;;;;;;8.93;7.67;;;11.80;99.90;;;;;;5015062;28;20454;-87
2022/05/04 02:19:19;;;;;;;12.73;8.10;;;11.80;99.90;;;;;;5015765;28;20576;-87
2022/05/04 02:21:46;;;;;;;9.30;7.80;;;11.70;99.90;;;;;;5017095;28;20493;-87
2022/05/04 02:24:13;;;;;;;10.43;7.63;;;11.70;99.90;;;;;;5018716;28;20465;-86
2022/05/04 02:26:39;;;;;;;12.03;7.80;;;11.70;99.90;;;;;;5019324;28;20474;-87
2022/05/04 02:29:06;;;;;;;13.90;8.60;;;11.80;99.90;;;;;;5030413;28;20505;-87
2022/05/04 02:31:34;;;;;;;12.87;7.93;;;11.80;99.90;;;;;;5036022;28;20517;-87
2022/05/04 02:34:01;;;;;;;10.70;7.13;;;11.80;99.90;;;;;;5036401;28;20506;-87
2022/05/04 02:39:13;;;;;;;10.00;7.90;;;11.70;99.90;;;;;;5036453;28;20410;-88
2022/05/04 02:41:40;;;;;;;11.17;8.40;;;11.70;99.90;;;;;;5036482;28;20489;-85
2022/05/04 02:44:07;;;;;;;10.77;8.20;;;11.70;99.90;;;;;;5036201;28;20441;-85
2022/05/04 02:46:38;;;;;;;9.97;7.63;;;11.80;99.90;;;;;;5036288;28;20469;-85
2022/05/04 02:49:04;;;;;;;9.40;7.50;;;11.80;99.90;;;;;;5036213;28;20419;-84
2022/05/04 02:51:31;;;;;;;10.63;8.30;;;11.80;99.90;;;;;;5035772;28;20493;-84
2022/05/04 02:53:58;;;;;;;9.37;8.33;;;11.80;99.90;;;;;;5036036;28;20453;-85
2022/05/04 02:56:25;;;;;;;10.30;7.73;;;11.80;99.90;;;;;;5036221;28;20449;-86
2022/05/04 02:58:53;;;;;;;9.13;8.00;;;11.80;99.90;;;;;;5036219;28;20454;-84
2022/05/04 03:04:07;;;;;;;9.73;8.47;;;11.80;99.90;;;;;;5020126;28;20789;-87
2022/05/04 03:06:35;;;;;;;9.47;8.47;;;11.70;99.90;;;;;;5014688;28;20533;-87
2022/05/04 03:09:02;;;;;;;11.07;8.67;;;11.80;99.90;;;;;;5014179;28;20442;-88
2022/05/04 03:14:13;;;;;;;9.13;7.80;;;12.00;99.90;;;;;;5013953;28;20496;-87
2022/05/04 03:16:40;;;;;;;12.07;8.00;;;12.00;99.90;;;;;;5015220;28;20541;-87
2022/05/04 03:19:09;;;;;;;10.20;8.23;;;12.00;99.90;;;;;;5013793;28;20437;-87
2022/05/04 03:21:35;;;;;;;11.93;8.93;;;12.00;99.90;;;;;;5021037;28;20569;-87
2022/05/04 03:24:03;;;;;;;9.77;8.20;;;12.00;99.90;;;;;;5035711;28;20462;-87
2022/05/04 03:26:30;;;;;;;9.57;8.10;;;12.00;99.90;;;;;;5031025;28;20557;-87
2022/05/04 03:28:57;;;;;;;10.90;8.33;;;12.10;99.90;;;;;;5020384;28;20458;-87
2022/05/04 03:31:24;;;;;;;12.03;8.47;;;12.10;99.90;;;;;;5019269;28;20591;-86
2022/05/04 03:33:52;;;;;;;9.47;7.70;;;12.10;99.90;;;;;;5021281;28;20460;-86
2022/05/04 03:36:20;;;;;;;9.90;7.67;;;12.10;99.90;;;;;;5017814;28;20442;-86
2022/05/04 03:38:49;;;;;;;10.70;8.97;;;12.20;99.90;;;;;;5022799;28;20474;-87
2022/05/04 03:41:16;;;;;;;9.37;8.33;;;12.30;99.90;;;;;;5022335;28;20920;-86
2022/05/04 03:43:46;;;;;;;17.97;8.70;;;12.20;99.90;;;;;;5027406;28;20405;-86
2022/05/04 03:46:15;;;;;;;10.47;8.53;;;12.30;99.90;;;;;;5021450;28;20489;-87
2022/05/04 03:48:43;;;;;;;11.90;8.83;;;12.30;99.90;;;;;;5017230;28;20466;-87
2022/05/04 03:51:10;;;;;;;9.83;8.80;;;12.30;99.90;;;;;;5016765;28;20490;-87
2022/05/04 03:53:38;;;;;;;10.80;8.70;;;12.30;99.90;;;;;;5017217;28;20988;-87
2022/05/04 03:56:06;;;;;;;9.50;7.63;;;12.30;99.90;;;;;;5017522;28;20894;-87
2022/05/04 03:58:33;;;;;;;10.90;8.40;;;12.30;99.90;;;;;;5036542;28;20457;-87
2022/05/04 04:01:00;;;;;;;10.93;8.93;;;12.30;99.90;;;;;;5034833;28;20450;-86
2022/05/04 04:03:26;;;;;;;10.27;8.40;;;12.20;99.90;;;;;;5018529;28;20440;-87
2022/05/04 04:05:53;;;;;;;11.30;9.30;;;12.20;99.90;;;;;;5017778;28;20516;-87
2022/05/04 04:08:21;;;;;;;11.00;8.00;;;12.20;99.90;;;;;;5023333;28;20474;-87
2022/05/04 04:10:50;;;;;;;10.23;9.07;;;12.20;99.90;;;;;;5031263;28;20490;-87
2022/05/04 04:13:17;;;;;;;11.30;8.23;;;12.20;99.90;;;;;;5031436;28;20565;-87
2022/05/04 04:15:44;;;;;;;9.67;8.30;;;12.20;99.90;;;;;;5020449;28;20827;-88
2022/05/04 04:18:11;;;;;;;10.80;8.60;;;12.20;99.90;;;;;;5023291;28;20470;-87
2022/05/04 04:23:24;;;;;;;8.77;7.87;;;12.30;99.90;;;;;;5038598;28;20425;-87
2022/05/04 04:25:52;;;;;;;11.20;8.77;;;12.40;99.90;;;;;;5037705;28;20432;-87
2022/05/04 04:28:22;;;;;;;9.80;7.53;;;12.50;99.90;;;;;;5037417;28;20421;-87
2022/05/04 04:30:49;;;;;;;12.37;8.73;;;12.50;99.90;;;;;;5021207;28;20521;-87
2022/05/04 04:33:16;;;;;;;9.70;7.97;;;12.50;99.90;;;;;;5017378;28;20588;-87
2022/05/04 04:35:43;;;;;;;11.40;9.23;;;12.50;99.90;;;;;;5016175;28;20541;-87
2022/05/04 04:38:10;;;;;;;12.43;9.10;;;12.40;99.90;;;;;;5016042;28;20432;-87
2022/05/04 04:40:37;;;;;;;9.77;8.30;;;12.40;99.90;;;;;;5016416;28;20557;-87
2022/05/04 04:43:05;;;;;;;8.90;8.00;;;12.40;99.90;;;;;;5017912;28;20457;-87
2022/05/04 04:45:32;;;;;;;11.27;8.53;;;12.40;99.90;;;;;;5020417;28;20478;-86
2022/05/04 04:47:59;;;;;;;8.47;7.57;;;12.30;99.90;;;;;;5032817;28;20493;-87
2022/05/04 04:50:26;;;;;;;8.90;7.10;;;12.30;99.90;;;;;;5036495;28;20470;-87
2022/05/04 04:52:55;;;;;;;10.63;8.60;;;12.40;99.90;;;;;;5020130;28;20478;-87
2022/05/04 04:55:22;;;;;;;9.77;8.63;;;12.40;99.90;;;;;;5015448;28;20457;-87
2022/05/04 04:57:49;;;;;;;9.57;7.70;;;12.50;99.90;;;;;;5024977;28;20552;-87
2022/05/04 05:00:21;;;;;;;9.80;8.50;;;12.50;99.90;;;;;;5018676;28;20469;-87
2022/05/04 05:02:48;;;;;;;10.53;8.80;;;12.60;99.90;;;;;;5019108;28;20469;-87
2022/05/04 05:05:16;;;;;;;16.60;9.10;;;12.60;99.90;;;;;;5016868;28;20551;-87
2022/05/04 05:07:43;;;;;;;10.83;9.20;;;12.50;99.90;;;;;;5017485;28;20468;-87
2022/05/04 05:10:13;;;;;;;12.30;8.80;;;12.60;99.90;;;;;;5019082;28;20454;-87
2022/05/04 05:12:40;;;;;;;11.27;8.73;;;12.70;99.90;;;;;;5018881;28;21079;-88
2022/05/04 05:17:54;;;;;;;12.03;8.33;;;12.90;99.90;;;;;;5037282;28;20474;-87
2022/05/04 05:20:21;;;;;;;9.93;8.03;;;13.00;99.90;;;;;;5037547;28;20474;-86
2022/05/04 05:22:51;;;;;;;11.43;8.13;;;13.00;99.90;;;;;;5036873;28;20427;-85
2022/05/04 05:25:25;;;;;;;9.03;7.43;;;13.00;99.90;;;;;;5036260;28;20431;-85
2022/05/04 05:27:52;;;;;;;12.77;9.43;;;13.10;99.90;;;;;;5029412;28;20830;-86
2022/05/04 05:30:19;;;;;;;9.80;7.80;;;13.10;99.90;;;;;;5021734;28;20437;-87
2022/05/04 05:32:46;;;;;;;9.40;8.00;;;13.10;99.90;;;;;;5018172;28;20517;-88
2022/05/04 05:35:16;;;;;;;10.43;7.70;;;13.10;99.90;;;;;;5018596;28;20425;-85
2022/05/04 05:37:43;;;;;;;9.03;8.00;;;13.20;99.90;;;;;;5017320;28;20439;-86
2022/05/04 05:40:12;;;;;;;9.87;8.87;;;13.20;99.90;;;;;;5017130;28;20493;-87
2022/05/04 05:42:39;;;;;;;10.03;7.67;;;13.30;99.90;;;;;;5031984;28;20457;-87
2022/05/04 05:45:07;;;;;;;12.23;7.67;;;13.40;99.90;;;;;;5026443;28;20495;-87
2022/05/04 05:47:36;;;;;;;12.57;9.20;;;13.40;99.90;;;;;;5023363;28;20455;-87
2022/05/04 05:50:03;;;;;;;10.80;8.60;;;13.40;99.90;;;;;;5024456;28;20513;-87
2022/05/04 05:52:33;;;;;;;10.80;8.30;;;13.50;99.90;;;;;;5050036;23;20474;-87
2022/05/04 05:55:00;;;;;;;7.80;6.80;;;13.50;99.90;;;;;;5029918;28;20478;-89
2022/05/04 05:57:27;;;;;;;13.10;8.60;;;13.50;99.90;;;;;;5030776;28;20448;-88
2022/05/04 05:59:54;;;;;;;9.70;8.07;;;13.60;99.90;;;;;;5028422;28;20876;-88
2022/05/04 06:02:28;;;;;;;11.60;9.70;;;13.60;99.90;;;;;;5026148;28;20462;-87
2022/05/04 06:04:55;;;;;;;11.93;8.60;;;13.70;99.90;;;;;;5024499;28;20406;-88
2022/05/04 06:07:22;;;;;;;9.83;8.13;;;13.80;99.90;;;;;;5024821;28;20525;-89
2022/05/04 06:09:51;;;;;;;12.93;9.00;;;13.90;99.90;;;;;;5027748;28;20450;-89
2022/05/04 06:12:19;;;;;;;8.80;7.33;;;14.00;99.90;;;;;;5025811;28;20457;-86
2022/05/04 06:14:46;;;;;;;14.17;8.50;;;14.10;99.90;;;;;;5027372;28;20468;-86
2022/05/04 06:17:13;;;;;;;11.87;8.37;;;14.20;99.90;;;;;;5033258;28;20549;-88
2022/05/04 06:19:40;;;;;;;9.50;8.50;;;14.20;99.90;;;;;;5027939;28;20461;-87
2022/05/04 06:22:07;;;;;;;10.90;8.23;;;14.30;99.90;;;;;;5029692;28;20444;-86
2022/05/04 06:24:34;;;;;;;14.53;8.70;;;14.50;99.90;;;;;;5024630;28;21029;-88
2022/05/04 06:27:02;;;;;;;11.37;7.60;;;14.50;99.90;;;;;;5026953;28;20523;-88
2022/05/04 06:34:58;;;;;;;11.70;8.37;;;14.80;99.90;;;;;;5022152;28;20460;-87
2022/05/04 06:37:25;;;;;;;11.23;7.63;;;14.80;99.90;;;;;;5023219;28;20437;-87
2022/05/04 06:39:53;;;;;;;10.40;7.57;;;14.90;99.90;;;;;;5023818;28;20475;-87
2022/05/04 06:42:21;;;;;;;9.80;7.50;;;14.90;99.90;;;;;;5020486;28;20489;-87
2022/05/04 06:44:50;;;;;;;10.67;8.37;;;15.00;99.90;;;;;;5021021;28;20445;-88
2022/05/04 06:47:17;;;;;;;8.70;7.70;;;15.00;99.90;;;;;;5022160;28;20472;-88
2022/05/04 06:49:44;;;;;;;8.40;7.50;;;15.00;99.90;;;;;;5025750;28;20458;-89
2022/05/04 06:52:11;;;;;;;13.20;8.90;;;15.10;99.90;;;;;;5031551;28;20460;-88
2022/05/04 06:54:38;;;;;;;11.73;8.70;;;15.20;99.90;;;;;;5033298;28;20447;-88
2022/05/04 06:57:05;;;;;;;9.57;8.57;;;15.30;99.90;;;;;;5025178;28;20443;-88
2022/05/04 06:59:35;;;;;;;10.13;8.80;;;15.20;99.90;;;;;;5027230;28;20390;-88
2022/05/04 07:02:02;;;;;;;10.10;8.57;;;15.30;99.90;;;;;;5038826;28;20449;-87
2022/05/04 07:04:30;;;;;;;10.60;8.33;;;15.30;99.90;;;;;;5039064;28;20477;-85
2022/05/04 07:06:58;;;;;;;8.30;7.10;;;15.40;99.90;;;;;;5034906;28;20420;-86
2022/05/04 07:09:25;;;;;;;10.37;7.17;;;15.40;99.90;;;;;;5040114;28;20421;-86
2022/05/04 07:11:52;;;;;;;9.27;6.50;;;15.60;99.90;;;;;;5028400;28;20457;-87
2022/05/04 07:14:19;;;;;;;8.43;7.07;;;15.60;99.90;;;;;;5025938;28;20445;-88
2022/05/04 07:16:51;;;;;;;8.40;7.00;;;15.50;99.90;;;;;;5028233;28;20443;-89
2022/05/04 07:19:18;;;;;;;13.47;7.80;;;15.60;99.90;;;;;;5030591;28;20437;-87
2022/05/04 07:21:46;;;;;;;7.23;6.03;;;15.70;99.90;;;;;;5028251;28;20830;-87
2022/05/04 07:24:13;;;;;;;11.63;7.27;;;15.90;99.90;;;;;;5033811;28;20798;-88
2022/05/04 07:26:40;;;;;;;8.83;6.27;;;15.90;99.90;;;;;;5030345;28;20528;-87
2022/05/04 07:29:09;;;;;;;7.63;6.70;;;15.90;99.90;;;;;;5038359;28;20448;-87
2022/05/04 07:31:37;;;;;;;7.60;6.30;;;15.90;99.90;;;;;;5036637;28;20449;-85
2022/05/04 07:34:09;;;;;;;10.10;6.97;;;16.00;99.90;;;;;;5028820;28;20439;-87
2022/05/04 07:36:36;;;;;;;7.27;6.43;;;15.90;99.90;;;;;;5030740;28;20439;-88
2022/05/04 07:39:04;;;;;;;10.27;6.30;;;15.90;99.90;;;;;;5028577;28;20520;-86
2022/05/04 07:44:16;;;;;;;9.20;6.70;;;15.90;99.90;;;;;;5031278;28;20434;-89
2022/05/04 07:46:45;;;;;;;8.77;6.60;;;16.10;99.90;;;;;;5028040;28;20530;-88
2022/05/04 07:49:36;;;;;;;7.63;6.00;;;16.00;99.90;;;;;;5030457;28;20458;-88
2022/05/04 07:52:15;;;;;;;9.57;7.93;;;16.00;99.90;;;;;;5033416;28;20494;-89
2022/05/04 07:54:42;;;;;;;11.30;6.77;;;16.10;99.90;;;;;;5027219;28;20473;-87
2022/05/04 07:57:09;;;;;;;8.30;6.23;;;16.00;99.90;;;;;;5030195;28;20450;-88
2022/05/04 07:59:36;;;;;;;7.53;6.03;;;16.00;99.90;;;;;;5028352;28;20461;-88
2022/05/04 08:04:50;;;;;;;7.87;5.50;;;16.10;99.90;;;;;;5027087;28;20439;-87
2022/05/04 08:07:17;;;;;;;8.10;6.70;;;16.10;99.90;;;;;;5034060;28;20439;-87
2022/05/04 08:09:45;;;;;;;8.03;7.07;;;16.20;99.90;;;;;;5029319;28;20939;-88
2022/05/04 08:12:13;;;;;;;11.53;6.80;;;16.20;99.90;;;;;;5032057;28;20468;-88
2022/05/04 08:14:40;;;;;;;6.80;5.27;;;16.10;99.90;;;;;;5026642;28;20526;-88
2022/05/04 08:17:07;;;;;;;9.33;6.50;;;16.30;99.90;;;;;;5025875;28;20461;-88
2022/05/04 08:19:34;;;;;;;7.30;5.30;;;16.30;99.90;;;;;;5025706;28;20425;-86
2022/05/04 08:22:03;;;;;;;6.93;5.03;;;16.40;99.90;;;;;;5026748;28;20532;-87
2022/05/04 08:24:30;;;;;;;6.87;5.47;;;16.40;99.90;;;;;;5025873;28;20405;-87
2022/05/04 08:27:00;;;;;;;7.13;5.50;;;16.40;99.90;;;;;;5030016;28;20453;-86
2022/05/04 08:29:27;;;;;;;8.70;5.17;;;16.50;99.90;;;;;;5029290;28;20457;-87
2022/05/04 08:31:56;;;;;;;7.20;5.43;;;16.60;99.90;;;;;;5028824;28;20463;-87
2022/05/04 08:34:23;;;;;;;6.70;5.33;;;16.60;99.90;;;;;;5025804;28;20482;-87
2022/05/04 08:36:50;;;;;;;8.07;6.63;;;16.50;99.90;;;;;;5031462;28;20476;-87
2022/05/04 08:39:19;;;;;;;7.30;4.63;;;16.50;99.90;;;;;;5033538;28;20444;-87
2022/05/04 08:41:49;;;;;;;9.83;5.87;;;16.50;99.90;;;;;;5028973;28;20515;-86
2022/05/04 08:44:16;;;;;;;7.40;5.77;;;16.30;99.90;;;;;;5034643;28;20424;-86
2022/05/04 08:46:44;;;;;;;12.33;9.00;;;16.20;99.90;;;;;;5027135;28;20417;-87
2022/05/04 08:49:14;;;;;;;9.30;6.70;;;16.10;99.90;;;;;;5026371;28;20952;-85
2022/05/04 08:51:42;;;;;;;7.70;6.10;;;16.00;99.90;;;;;;5028292;28;20669;-87
2022/05/04 08:54:13;;;;;;;9.57;6.70;;;15.90;99.90;;;;;;5027966;28;20848;-87
2022/05/04 08:56:44;;;;;;;9.77;7.43;;;15.90;99.90;;;;;;5028506;28;20493;-89
2022/05/04 08:59:11;;;;;;;11.60;8.40;;;15.80;99.90;;;;;;5027889;28;20440;-88
2022/05/04 09:01:39;;;;;;;12.23;9.50;;;15.70;99.90;;;;;;5026908;28;21034;-89
2022/05/04 09:04:07;;;;;;;9.77;7.90;;;15.60;99.90;;;;;;5027110;28;20462;-88
2022/05/04 09:06:43;;;;;;;12.63;7.53;;;15.30;99.90;;;;;;5029740;28;20461;-87
2022/05/04 09:09:10;;;;;;;10.30;8.07;;;15.10;99.90;;;;;;5035067;28;20453;-88
2022/05/04 09:11:38;;;;;;;9.90;7.87;;;15.10;99.90;;;;;;5036100;28;20468;-87
2022/05/04 09:14:10;;;;;;;10.20;7.63;;;15.10;99.90;;;;;;5031729;28;20468;-88
2022/05/04 09:16:37;;;;;;;9.60;6.97;;;15.10;99.90;;;;;;5027906;28;20467;-87
2022/05/04 09:19:07;;;;;;;11.50;7.77;;;15.00;99.90;;;;;;5024814;28;20956;-87
2022/05/04 09:21:34;;;;;;;9.10;6.73;;;15.00;99.90;;;;;;5023690;28;20445;-87
2022/05/04 09:24:01;;;;;;;11.37;7.20;;;15.30;99.90;;;;;;5022160;28;20427;-87
2022/05/04 09:26:31;;;;;;;8.80;7.80;;;15.40;99.90;;;;;;5024437;28;20504;-88
2022/05/04 09:29:01;;;;;;;11.17;8.70;;;15.30;99.90;;;;;;5024156;28;20458;-87
2022/05/04 09:31:31;;;;;;;11.63;7.87;;;15.40;99.90;;;;;;5026036;28;20437;-88
2022/05/04 09:33:59;;;;;;;8.97;6.53;;;15.20;99.90;;;;;;5025318;28;20529;-87
2022/05/04 09:36:34;;;;;;;9.97;7.90;;;15.20;99.90;;;;;;5024100;28;20458;-87
2022/05/04 09:45:08;;;;;;;11.90;6.70;;;15.60;99.90;;;;;;5030999;28;20504;-89
2022/05/04 09:47:40;;;;;;;9.20;7.80;;;15.80;99.90;;;;;;5035892;28;20428;-87
2022/05/04 09:50:09;;;;;;;9.80;7.87;;;16.00;99.90;;;;;;5036618;28;20418;-86
2022/05/04 09:52:50;;;;;;;11.80;8.80;;;16.10;99.90;;;;;;5032743;28;20486;-87
2022/05/04 09:55:24;;;;;;;13.13;9.67;;;16.20;99.90;;;;;;5037101;28;20420;-87
2022/05/04 09:57:55;;;;;;;13.53;11.47;;;16.40;99.90;;;;;;5029619;28;20440;-89
2022/05/04 10:00:24;;;;;;;13.33;10.10;;;16.60;99.90;;;;;;5025711;28;20435;-87
2022/05/04 10:02:54;;;;;;;13.00;8.97;;;16.70;99.90;;;;;;5028160;28;20452;-88
2022/05/04 10:05:24;;;;;;;10.03;8.97;;;16.90;99.90;;;;;;5022526;28;20513;-86
2022/05/04 10:07:52;;;;;;;11.50;9.30;;;17.10;99.90;;;;;;5021313;28;20509;-87
2022/05/04 10:10:21;;;;;;;14.37;9.87;;;17.20;99.90;;;;;;5022122;28;20619;-88
2022/05/04 10:12:49;;;;;;;11.43;10.20;;;17.30;99.90;;;;;;5019741;28;20494;-87
2022/05/04 10:15:18;;;;;;;12.43;11.00;;;17.50;99.90;;;;;;5021256;28;20454;-87
2022/05/04 10:17:52;;;;;;;12.90;10.70;;;17.40;99.90;;;;;;5031657;28;20465;-87
2022/05/04 10:20:31;;;;;;;16.00;11.03;;;17.40;99.90;;;;;;5021726;28;20493;-88
2022/05/04 10:23:03;;;;;;;15.10;11.97;;;17.60;99.90;;;;;;5023007;28;20480;-88
2022/05/04 10:25:32;;;;;;;14.10;11.73;;;17.70;99.90;;;;;;5021399;28;20457;-88
2022/05/04 10:28:06;;;;;;;12.33;10.40;;;18.10;99.90;;;;;;5021034;28;20428;-86
2022/05/04 10:30:34;;;;;;;13.10;10.23;;;18.20;99.90;;;;;;5023912;28;20506;-87
2022/05/04 10:33:05;;;;;;;12.03;10.83;;;18.10;99.90;;;;;;5023182;28;20570;-87
2022/05/04 10:35:42;;;;;;;12.90;10.73;;;18.00;99.90;;;;;;5025541;28;20446;-88
2022/05/04 10:38:15;;;;;;;12.30;10.47;;;18.00;99.90;;;;;;5027360;28;21112;-88
2022/05/04 10:40:51;;;;;;;12.43;10.23;;;17.90;99.90;;;;;;5031086;28;20430;-87
2022/05/04 10:43:19;;;;;;;12.37;11.07;;;18.00;99.90;;;;;;5032429;28;20434;-88
2022/05/04 10:45:50;;;;;;;12.33;10.50;;;18.20;99.90;;;;;;5030136;28;20465;-86
2022/05/04 10:48:30;;;;;;;14.50;10.83;;;18.40;99.90;;;;;;5027238;28;20443;-87
2022/05/04 10:51:07;;;;;;;12.33;11.07;;;18.50;99.90;;;;;;5032501;28;20473;-88
2022/05/04 10:53:39;;;;;;;13.63;10.20;;;18.50;99.90;;;;;;5040125;28;20460;-89
2022/05/04 10:56:09;;;;;;;10.73;9.60;;;18.70;99.90;;;;;;5034562;28;20454;-86
2022/05/04 10:58:38;;;;;;;14.30;9.83;;;18.80;99.90;;;;;;5021681;28;20520;-87
2022/05/04 11:01:13;;;;;;;14.40;9.77;;;19.00;99.90;;;;;;5027819;28;20529;-87
2022/05/04 11:03:56;;;;;;;12.07;9.60;;;19.20;99.90;;;;;;5025183;28;20471;-86
2022/05/04 11:06:26;;;;;;;10.00;8.90;;;19.30;99.90;;;;;;5034281;28;20518;-87
2022/05/04 11:08:56;;;;;;;9.50;7.27;;;19.40;99.90;;;;;;5025063;28;20458;-87
2022/05/04 11:11:24;;;;;;;9.67;8.10;;;19.20;99.90;;;;;;5024692;28;20569;-87
2022/05/04 11:13:51;;;;;;;9.57;7.23;;;19.20;99.90;;;;;;5026951;28;21027;-87
2022/05/04 11:16:20;;;;;;;8.60;7.70;;;19.10;99.90;;;;;;5027156;28;20413;-87
2022/05/04 11:18:47;;;;;;;10.60;7.07;;;19.20;99.90;;;;;;5024289;28;20971;-88
2022/05/04 11:21:15;;;;;;;8.53;6.97;;;19.30;99.90;;;;;;5022472;28;20527;-87
2022/05/04 11:23:48;;;;;;;12.33;6.67;;;19.50;99.90;;;;;;5023538;28;20516;-87
2022/05/04 11:26:25;;;;;;;9.63;7.50;;;19.50;99.90;;;;;;5025716;28;20428;-88
2022/05/04 11:28:53;;;;;;;12.07;7.73;;;19.80;99.90;;;;;;5024425;28;20537;-87
2022/05/04 11:31:22;;;;;;;9.43;7.83;;;19.80;99.90;;;;;;5022639;28;20469;-87
2022/05/04 11:33:50;;;;;;;9.00;6.30;;;19.80;99.90;;;;;;5025287;28;20492;-88
2022/05/04 11:36:25;;;;;;;8.03;5.90;;;19.70;99.90;;;;;;5023784;28;20536;-87
2022/05/04 11:38:54;;;;;;;8.13;6.17;;;19.70;99.90;;;;;;5025453;28;20444;-87
2022/05/04 11:41:24;;;;;;;6.57;5.50;;;19.30;99.90;;;;;;5024834;28;20505;-87
2022/05/04 11:43:51;;;;;;;6.60;5.57;;;19.30;99.90;;;;;;5024770;28;20446;-87
2022/05/04 11:46:18;;;;;;;6.77;5.80;;;19.50;99.90;;;;;;5022522;28;20423;-87
2022/05/04 11:48:47;;;;;;;10.57;7.77;;;19.40;99.90;;;;;;5023264;28;20436;-88
2022/05/04 11:51:17;;;;;;;8.10;5.93;;;19.10;99.90;;;;;;5026496;28;20486;-87
2022/05/04 11:53:44;;;;;;;7.37;6.47;;;19.10;99.90;;;;;;5023684;28;20488;-87
2022/05/04 11:56:13;;;;;;;8.30;5.77;;;19.10;99.90;;;;;;5024956;28;20466;-86
2022/05/04 11:58:43;;;;;;;8.57;5.83;;;19.20;99.90;;;;;;5026742;28;20444;-89
2022/05/04 12:01:13;;;;;;;7.00;5.27;;;19.20;99.90;;;;;;5026505;28;20477;-88
2022/05/04 12:03:42;;;;;;;9.03;6.17;;;19.10;99.90;;;;;;5023380;28;20431;-88
2022/05/04 12:06:10;;;;;;;8.63;6.40;;;19.20;99.90;;;;;;5022126;28;20494;-87
2022/05/04 12:08:38;;;;;;;8.10;5.90;;;19.20;99.90;;;;;;5027590;28;20433;-88
2022/05/04 12:11:06;;;;;;;9.30;6.90;;;19.10;99.90;;;;;;5024915;28;20478;-87
2022/05/04 12:13:37;;;;;;;12.20;6.57;;;19.00;99.90;;;;;;5027033;28;20576;-88
2022/05/04 12:16:05;;;;;;;11.03;6.50;;;19.10;99.90;;;;;;5025708;28;20430;-87
2022/05/04 12:18:34;;;;;;;7.90;6.03;;;19.10;99.90;;;;;;5021475;28;20484;-87
2022/05/04 12:21:06;;;;;;;8.80;6.23;;;19.20;99.90;;;;;;5023420;28;20577;-87
2022/05/04 12:23:34;;;;;;;9.43;5.73;;;19.30;99.90;;;;;;5032601;28;20530;-87
2022/05/04 12:26:03;;;;;;;7.37;5.33;;;19.40;99.90;;;;;;5034371;28;20522;-87
2022/05/04 12:28:33;;;;;;;8.57;5.33;;;19.60;99.40;;;;;;5033263;28;20458;-86
2022/05/04 12:33:49;;;;;;;5.93;5.33;;;19.80;98.30;;;;;;5012839;28;20486;-87
2022/05/04 12:36:18;;;;;;;7.50;4.97;;;19.80;98.10;;;;;;5037995;28;20470;-87
2022/05/04 12:38:48;;;;;;;7.20;6.10;;;19.80;98.20;;;;;;5028750;28;20461;-86
2022/05/04 12:41:17;;;;;;;7.63;6.47;;;19.90;98.20;;;;;;5025373;28;20445;-88
2022/05/04 12:43:45;;;;;;;6.80;5.20;;;20.00;97.50;;;;;;5025850;28;20450;-88
2022/05/04 12:46:16;;;;;;;7.03;5.10;;;20.10;97.50;;;;;;5030612;28;20443;-88
2022/05/04 12:48:44;;;;;;;7.03;5.20;;;20.10;96.50;;;;;;5026793;28;20416;-88
2022/05/04 12:53:53;;;;;;;6.23;5.37;;;20.10;96.40;;;;;;5024629;28;20494;-86
2022/05/04 12:59:13;;;;;;;7.93;5.27;;;20.30;96.60;;;;;;4993016;28;20443;-88
2022/05/04 13:01:42;;;;;;;8.90;5.73;;;20.40;96.70;;;;;;5028201;28;20465;-86
2022/05/04 13:04:08;;;;;;;7.33;4.90;;;20.50;96.50;;;;;;5027385;28;20425;-87
2022/05/04 13:06:36;;;;;;;5.60;5.00;;;20.60;96.10;;;;;;5028197;28;20447;-86
2022/05/04 13:09:03;;;;;;;8.63;5.50;;;20.80;95.60;;;;;;5025456;28;20454;-88
2022/05/04 13:11:31;;;;;;;8.53;5.17;;;20.70;96.00;;;;;;5026153;28;20477;-88
2022/05/04 13:13:58;;;;;;;8.20;5.93;;;20.70;95.90;;;;;;5024564;28;20485;-88
2022/05/04 13:16:25;;;;;;;7.00;4.63;;;20.70;96.00;;;;;;5027649;28;20767;-88
2022/05/04 13:18:53;;;;;;;8.27;5.73;;;20.70;96.60;;;;;;5029250;28;20454;-87
2022/05/04 13:21:21;;;;;;;8.70;6.10;;;20.80;96.60;;;;;;5027544;28;20467;-87
2022/05/04 13:23:48;;;;;;;8.10;5.37;;;20.90;96.80;;;;;;5027521;28;20450;-87
2022/05/04 13:26:17;;;;;;;10.37;5.30;;;20.90;97.10;;;;;;5026315;28;20464;-86
2022/05/04 13:28:44;;;;;;;8.77;5.40;;;20.70;97.00;;;;;;5026681;28;20450;-87